KBIL/BIL METAR and TAF weather

Enter ICAO airport designator
Station Type Date Time Source
KBIL METAR 2018/10/21 04:53 UTC NOAA

KBIL 210453Z 25012KT 10SM CLR 17/M03 A3007 RMK AO2 SLP172 T01671028


Station Type Date Time Source
KBIL Decoded METAR 2018/10/21 04:53 UTC NOAA

LOGAN INTERNATIONAL AIRPORT, MT, United States (KBIL) 45-49N 108-33W 1091M
Oct 21, 2018 - 12:53 AM EDT / 2018.10.21 0453 UTC
Wind: from the WSW (250 degrees) at 14 MPH (12 KT):0
Visibility: 10 mile(s):0
Sky conditions: clear
Temperature: 62.1 F (16.7 C)
Dew Point: 27.0 F (-2.8 C)
Relative Humidity: 26%
Pressure (altimeter): 30.07 in. Hg (1018 hPa)
ob: KBIL 210453Z 25012KT 10SM CLR 17/M03 A3007 RMK AO2 SLP172 T01671028
cycle: 5

Station Type Date Time Source
KBIL TAF 2018/10/21 06:22 UTC NOAA

TAF KBIL 210520Z 2106/2206 25011KT P6SM SKC
FM210800 03010KT P6SM SKC
FM211800 15008KT P6SM SCT200


Example: see airport list